createdAt,value
2023-02-12T00:02:03.525Z,10.66
2023-02-12T00:04:30.324Z,10.65
2023-02-12T00:06:56.933Z,10.63
2023-02-12T00:09:23.529Z,10.61
2023-02-12T00:11:50.233Z,10.67
2023-02-12T00:14:16.994Z,10.70
2023-02-12T00:16:43.706Z,10.71
2023-02-12T00:19:10.423Z,10.72
2023-02-12T00:21:37.093Z,10.71
2023-02-12T00:24:04.164Z,10.65
2023-02-12T00:26:30.953Z,10.63
2023-02-12T00:28:57.614Z,10.63
2023-02-12T00:31:28.350Z,10.64
2023-02-12T00:33:56.626Z,10.58
2023-02-12T00:36:26.112Z,10.54
2023-02-12T00:38:54.811Z,10.50
2023-02-12T00:41:22.610Z,10.51
2023-02-12T00:43:50.380Z,10.48
2023-02-12T00:46:17.321Z,10.46
2023-02-12T00:48:44.282Z,10.43
2023-02-12T00:51:11.011Z,10.37
2023-02-12T00:53:38.006Z,10.34
2023-02-12T00:56:04.956Z,10.33
2023-02-12T00:58:31.753Z,10.31
2023-02-12T01:00:59.496Z,10.34
2023-02-12T01:03:26.212Z,10.38
2023-02-12T01:05:54.018Z,10.42
2023-02-12T01:08:21.949Z,10.38
2023-02-12T01:11:04.077Z,10.40
2023-02-12T01:13:31.817Z,10.44
2023-02-12T01:16:10.884Z,10.47
2023-02-12T01:18:38.050Z,10.51
2023-02-12T01:21:11.557Z,10.56
2023-02-12T01:23:38.466Z,10.57
2023-02-12T01:26:05.342Z,10.54
2023-02-12T01:28:32.027Z,10.55
2023-02-12T01:30:58.796Z,10.54
2023-02-12T01:33:26.997Z,10.56
2023-02-12T01:35:54.930Z,10.52
2023-02-12T01:38:21.815Z,10.51
2023-02-12T01:40:48.543Z,10.51
2023-02-12T01:43:15.181Z,10.50
2023-02-12T01:45:50.803Z,10.49
2023-02-12T01:48:20.369Z,10.48
2023-02-12T01:50:49.088Z,10.47
2023-02-12T01:53:20.223Z,10.42
2023-02-12T01:55:48.860Z,10.35
2023-02-12T01:58:16.267Z,10.33
2023-02-12T02:00:43.464Z,10.38
2023-02-12T02:03:10.300Z,10.46
2023-02-12T02:05:45.716Z,10.50
2023-02-12T02:08:13.154Z,10.44
2023-02-12T02:10:39.899Z,10.42
2023-02-12T02:13:26.136Z,10.48
2023-02-12T02:15:59.866Z,10.55
2023-02-12T02:18:43.260Z,10.53
2023-02-12T02:21:41.905Z,10.54
2023-02-12T02:24:47.353Z,10.59
2023-02-12T02:27:23.480Z,10.61
2023-02-12T02:30:23.931Z,10.66
2023-02-12T02:33:24.461Z,10.66
2023-02-12T02:36:02.983Z,10.61
2023-02-12T02:39:00.812Z,10.61
2023-02-12T02:41:38.987Z,10.58
2023-02-12T02:44:14.965Z,10.54
2023-02-12T02:46:48.681Z,10.55
2023-02-12T02:49:25.299Z,10.53
2023-02-12T02:51:59.454Z,10.53
2023-02-12T02:54:32.242Z,10.56
2023-02-12T02:57:06.962Z,10.62
2023-02-12T02:59:40.078Z,10.64
2023-02-12T03:02:12.725Z,10.68
2023-02-12T03:04:46.103Z,10.67
2023-02-12T03:07:38.321Z,10.74
2023-02-12T03:10:15.868Z,10.72
2023-02-12T03:13:08.185Z,10.72
2023-02-12T03:15:39.943Z,10.68
2023-02-12T03:18:12.757Z,10.67
2023-02-12T03:20:48.704Z,10.59
2023-02-12T03:23:23.464Z,10.68
2023-02-12T03:25:57.079Z,10.70
2023-02-12T03:28:31.369Z,10.69
2023-02-12T03:31:22.276Z,10.71
2023-02-12T03:34:07.299Z,10.72
2023-02-12T03:36:56.759Z,10.77
2023-02-12T03:39:43.556Z,10.79
2023-02-12T03:42:18.209Z,10.84
2023-02-12T03:44:44.798Z,10.85
2023-02-12T03:47:21.071Z,10.85
2023-02-12T03:50:18.000Z,10.84
2023-02-12T03:52:46.319Z,10.83
2023-02-12T03:55:16.409Z,10.81
2023-02-12T03:57:47.859Z,10.81
2023-02-12T04:00:22.112Z,10.84
2023-02-12T04:02:48.944Z,10.83
2023-02-12T04:05:20.182Z,10.85
2023-02-12T04:07:47.198Z,10.86
2023-02-12T04:10:14.444Z,10.84
2023-02-12T04:12:52.152Z,10.83
2023-02-12T04:15:37.425Z,10.78
2023-02-12T04:18:10.439Z,10.83
2023-02-12T04:21:06.751Z,10.81
2023-02-12T04:23:55.107Z,10.82
2023-02-12T04:26:33.580Z,10.84
2023-02-12T04:29:18.926Z,10.90
2023-02-12T04:31:48.452Z,10.90
2023-02-12T04:34:44.152Z,10.86
2023-02-12T04:37:34.089Z,10.79
2023-02-12T04:40:06.204Z,10.78
2023-02-12T04:42:44.996Z,10.72
2023-02-12T04:45:13.863Z,10.67
2023-02-12T04:47:40.641Z,10.72
2023-02-12T04:50:08.169Z,10.74
2023-02-12T04:52:34.854Z,10.73
2023-02-12T04:55:01.494Z,10.75
2023-02-12T04:57:28.195Z,10.67
2023-02-12T04:59:54.987Z,10.66
2023-02-12T05:02:21.704Z,10.60
2023-02-12T05:04:50.217Z,10.61
2023-02-12T05:07:17.153Z,10.53
2023-02-12T05:09:43.833Z,10.47
2023-02-12T05:12:10.510Z,10.50
2023-02-12T05:14:37.304Z,10.46
2023-02-12T05:17:03.924Z,10.53
2023-02-12T05:19:30.663Z,10.47
2023-02-12T05:21:57.284Z,10.49
2023-02-12T05:24:23.904Z,10.52
2023-02-12T05:26:50.742Z,10.51
2023-02-12T05:29:18.162Z,10.56
2023-02-12T05:31:45.370Z,10.56
2023-02-12T05:34:12.919Z,10.53
2023-02-12T05:36:40.030Z,10.55
2023-02-12T05:39:07.418Z,10.53
2023-02-12T05:41:37.664Z,10.49
2023-02-12T05:44:06.422Z,10.52
2023-02-12T05:46:33.379Z,10.53
2023-02-12T05:49:00.102Z,10.33
2023-02-12T05:51:27.295Z,10.40
2023-02-12T05:53:59.903Z,10.33
2023-02-12T05:56:41.524Z,10.37
2023-02-12T05:59:15.845Z,10.33
2023-02-12T06:01:44.598Z,10.34
2023-02-12T06:04:24.368Z,10.33
2023-02-12T06:06:52.707Z,10.35
2023-02-12T06:09:19.620Z,10.37
2023-02-12T06:11:46.320Z,10.43
2023-02-12T06:14:16.542Z,10.47
2023-02-12T06:16:48.482Z,10.33
2023-02-12T06:19:15.793Z,10.38
2023-02-12T06:21:42.405Z,10.40
2023-02-12T06:24:12.176Z,10.48
2023-02-12T06:26:38.978Z,10.51
2023-02-12T06:29:05.734Z,10.56
2023-02-12T06:31:35.676Z,10.55
2023-02-12T06:34:05.918Z,10.59
2023-02-12T06:36:32.954Z,10.66
2023-02-12T06:39:01.887Z,10.67
2023-02-12T06:41:28.805Z,10.71
2023-02-12T06:43:55.567Z,10.64
2023-02-12T06:46:22.598Z,10.60
2023-02-12T06:48:53.676Z,10.64
2023-02-12T06:51:22.947Z,10.64
2023-02-12T06:53:50.994Z,10.66
2023-02-12T06:56:19.070Z,10.65
2023-02-12T06:58:48.272Z,10.62
2023-02-12T07:01:21.522Z,10.72
2023-02-12T07:03:56.845Z,10.77
2023-02-12T07:06:24.854Z,10.76
2023-02-12T07:08:51.557Z,10.77
2023-02-12T07:11:18.919Z,10.67
2023-02-12T07:13:45.861Z,10.83
2023-02-12T07:16:15.093Z,10.82
2023-02-12T07:18:43.344Z,10.87
2023-02-12T07:21:12.005Z,10.95
2023-02-12T07:23:39.437Z,10.95
2023-02-12T07:26:14.001Z,10.97
2023-02-12T07:28:41.980Z,10.98
2023-02-12T07:31:09.925Z,10.98
2023-02-12T07:33:37.663Z,11.08
2023-02-12T07:36:06.289Z,11.17
2023-02-12T07:38:35.924Z,11.20
2023-02-12T07:41:10.873Z,11.29
2023-02-12T07:43:39.568Z,11.39
2023-02-12T07:46:12.226Z,11.45
2023-02-12T07:48:39.236Z,11.44
2023-02-12T07:51:11.430Z,11.55
2023-02-12T07:53:38.527Z,11.69
2023-02-12T07:56:13.849Z,11.82
2023-02-12T07:58:42.603Z,11.97
2023-02-12T08:01:33.644Z,12.20
2023-02-12T08:04:16.058Z,12.37
2023-02-12T08:06:48.421Z,12.56
2023-02-12T08:09:20.637Z,12.72
2023-02-12T08:11:47.736Z,12.87
2023-02-12T08:14:16.970Z,13.06
2023-02-12T08:16:45.025Z,12.96
2023-02-12T08:19:19.470Z,13.11
2023-02-12T08:21:52.387Z,13.22
2023-02-12T08:24:19.421Z,13.34
2023-02-12T08:26:46.142Z,13.25
2023-02-12T08:29:18.794Z,13.25
2023-02-12T08:31:48.967Z,13.51
2023-02-12T08:34:21.573Z,13.86
2023-02-12T08:36:50.486Z,14.02
2023-02-12T08:39:18.705Z,14.23
2023-02-12T08:41:46.337Z,14.32
2023-02-12T08:44:14.194Z,14.23
2023-02-12T08:46:46.749Z,14.07
2023-02-12T08:49:22.503Z,14.33
2023-02-12T08:51:54.307Z,14.86
2023-02-12T08:54:23.880Z,15.08
2023-02-12T08:56:54.122Z,15.34
2023-02-12T08:59:20.806Z,15.65
2023-02-12T09:01:51.400Z,15.51
2023-02-12T09:04:27.625Z,14.95
2023-02-12T09:06:54.723Z,14.66
2023-02-12T09:09:21.758Z,14.67
2023-02-12T09:11:49.460Z,14.44
2023-02-12T09:14:18.790Z,14.17
2023-02-12T09:16:45.959Z,14.06
2023-02-12T09:19:13.874Z,13.51
2023-02-12T09:21:41.111Z,13.47
2023-02-12T09:24:08.566Z,13.42
2023-02-12T09:26:35.520Z,13.51
2023-02-12T09:29:04.151Z,13.40
2023-02-12T09:31:32.838Z,13.33
2023-02-12T09:34:05.567Z,13.63
2023-02-12T09:36:33.510Z,13.74
2023-02-12T09:39:00.770Z,13.68
2023-02-12T09:41:47.591Z,13.84
2023-02-12T09:44:21.703Z,13.68
2023-02-12T09:47:06.868Z,13.46
2023-02-12T09:49:56.551Z,13.28
2023-02-12T09:52:27.471Z,13.15
2023-02-12T09:54:54.985Z,13.27
2023-02-12T09:57:33.361Z,13.24
2023-02-12T10:00:05.125Z,13.21
2023-02-12T10:02:34.845Z,12.79
2023-02-12T10:05:02.607Z,12.78
2023-02-12T10:07:43.583Z,12.91
2023-02-12T10:10:33.245Z,12.92
2023-02-12T10:13:13.012Z,12.55
2023-02-12T10:16:05.921Z,12.85
2023-02-12T10:18:47.911Z,12.80
2023-02-12T10:21:42.515Z,13.00
2023-02-12T10:24:31.091Z,12.83
2023-02-12T10:27:03.070Z,12.73
2023-02-12T10:29:34.787Z,12.81
2023-02-12T10:32:13.304Z,12.60
2023-02-12T10:34:42.581Z,12.66
2023-02-12T10:37:27.217Z,12.59
2023-02-12T10:40:17.941Z,12.50
2023-02-12T10:42:48.968Z,12.32
2023-02-12T10:45:22.357Z,12.16
2023-02-12T10:47:54.592Z,12.39
2023-02-12T10:50:33.677Z,12.16
2023-02-12T10:53:03.409Z,12.33
2023-02-12T10:55:32.273Z,12.46
2023-02-12T10:58:01.431Z,12.29
2023-02-12T11:00:36.739Z,12.07
2023-02-12T11:03:12.511Z,12.19
2023-02-12T11:05:41.860Z,12.13
2023-02-12T11:08:26.389Z,12.07
2023-02-12T11:10:53.251Z,12.05
2023-02-12T11:13:27.865Z,11.88
2023-02-12T11:15:55.362Z,12.23
2023-02-12T11:18:28.210Z,12.25
2023-02-12T11:21:09.936Z,12.44
2023-02-12T11:23:42.031Z,12.67
2023-02-12T11:26:17.517Z,12.75
2023-02-12T11:28:54.839Z,12.76
2023-02-12T11:31:30.008Z,12.81
2023-02-12T11:34:07.816Z,12.93
2023-02-12T11:36:41.506Z,13.00
2023-02-12T11:39:18.170Z,12.81
2023-02-12T11:41:45.049Z,12.75
2023-02-12T11:44:18.124Z,12.81
2023-02-12T11:46:50.978Z,13.00
2023-02-12T11:49:25.223Z,13.09
2023-02-12T11:51:52.669Z,12.87
2023-02-12T11:54:33.935Z,13.08
2023-02-12T11:57:00.597Z,13.24
2023-02-12T11:59:36.877Z,12.94
2023-02-12T12:02:30.354Z,12.74
2023-02-12T12:05:08.061Z,12.68
2023-02-12T12:07:39.039Z,12.59
2023-02-12T12:10:25.729Z,12.77
2023-02-12T12:12:59.685Z,12.79
2023-02-12T12:15:49.288Z,12.67
2023-02-12T12:19:19.974Z,12.89
2023-02-12T12:22:27.985Z,12.89
2023-02-12T12:25:06.387Z,13.06
2023-02-12T12:28:03.134Z,13.29
2023-02-12T12:30:53.096Z,13.52
2023-02-12T12:33:30.698Z,13.76
2023-02-12T12:36:25.849Z,13.99
2023-02-12T12:38:58.421Z,14.02
2023-02-12T12:41:59.712Z,14.16
2023-02-12T12:44:40.427Z,14.15
2023-02-12T12:47:17.478Z,14.12
2023-02-12T12:50:00.339Z,13.87
2023-02-12T12:52:52.765Z,13.89
2023-02-12T12:55:50.283Z,14.09
2023-02-12T12:58:55.826Z,14.28
2023-02-12T13:01:50.684Z,14.27
2023-02-12T13:04:39.996Z,14.42
2023-02-12T13:07:25.054Z,14.37
2023-02-12T13:10:07.844Z,14.59
2023-02-12T13:13:06.896Z,14.53
2023-02-12T13:15:44.234Z,14.52
2023-02-12T13:18:10.815Z,14.66
2023-02-12T13:21:04.135Z,14.81
2023-02-12T13:23:37.804Z,14.87
2023-02-12T13:26:31.788Z,14.68
2023-02-12T13:29:09.842Z,14.55
2023-02-12T13:31:45.351Z,14.56
2023-02-12T13:34:15.053Z,14.37
2023-02-12T13:36:42.550Z,14.49
2023-02-12T13:39:18.793Z,14.59
2023-02-12T13:41:55.208Z,14.42
2023-02-12T13:44:40.772Z,14.02
2023-02-12T13:47:21.309Z,13.94
2023-02-12T13:50:10.861Z,13.74
2023-02-12T13:52:49.574Z,13.74
2023-02-12T13:55:29.190Z,13.82
2023-02-12T13:58:39.696Z,13.71
2023-02-12T14:01:10.766Z,13.92
2023-02-12T14:03:38.794Z,14.09
2023-02-12T14:06:13.146Z,14.34
2023-02-12T14:08:47.034Z,14.47
2023-02-12T14:11:17.278Z,14.46
2023-02-12T14:14:04.129Z,14.46
2023-02-12T14:16:30.708Z,14.42
2023-02-12T14:19:34.820Z,14.32
2023-02-12T14:22:02.856Z,14.19
2023-02-12T14:24:38.532Z,14.13
2023-02-12T14:27:17.445Z,14.04
2023-02-12T14:30:09.013Z,14.14
2023-02-12T14:32:55.232Z,14.01
2023-02-12T14:35:33.925Z,13.96
2023-02-12T14:38:03.685Z,13.96
2023-02-12T14:40:33.031Z,14.13
2023-02-12T14:43:01.877Z,14.21
2023-02-12T14:45:36.223Z,14.07
2023-02-12T14:48:05.074Z,14.08
2023-02-12T14:50:39.537Z,14.07
2023-02-12T14:53:22.288Z,14.08
2023-02-12T14:55:49.746Z,14.15
2023-02-12T14:58:20.434Z,14.02
2023-02-12T15:00:50.729Z,13.93
2023-02-12T15:03:30.580Z,13.87
2023-02-12T15:06:09.988Z,13.77
2023-02-12T15:08:55.138Z,13.86
2023-02-12T15:11:54.207Z,14.09
2023-02-12T15:14:39.982Z,14.08
2023-02-12T15:17:20.958Z,13.97
2023-02-12T15:20:02.693Z,14.06
2023-02-12T15:22:40.483Z,13.94
2023-02-12T15:25:27.166Z,13.95
2023-02-12T15:28:02.238Z,13.77
2023-02-12T15:30:35.945Z,13.76
2023-02-12T15:33:06.844Z,13.76
2023-02-12T15:35:37.073Z,13.74
2023-02-12T15:38:07.455Z,13.74
2023-02-12T15:40:34.879Z,13.67
2023-02-12T15:43:07.335Z,13.57
2023-02-12T15:45:36.181Z,13.53
2023-02-12T15:48:15.899Z,13.37
2023-02-12T15:50:55.981Z,13.43
2023-02-12T15:53:25.951Z,13.42
2023-02-12T15:55:52.984Z,13.34
2023-02-12T15:58:24.666Z,13.29
2023-02-12T16:00:52.799Z,13.25
2023-02-12T16:03:31.902Z,13.19
2023-02-12T16:06:18.534Z,13.12
2023-02-12T16:08:49.476Z,13.06
2023-02-12T16:11:23.194Z,13.02
2023-02-12T16:13:54.076Z,13.00
2023-02-12T16:16:28.933Z,12.93
2023-02-12T16:19:26.327Z,12.88
2023-02-12T16:22:06.302Z,12.82
2023-02-12T16:24:39.998Z,12.73
2023-02-12T16:27:18.923Z,12.70
2023-02-12T16:29:57.971Z,12.61
2023-02-12T16:32:42.324Z,12.54
2023-02-12T16:35:12.122Z,12.51
2023-02-12T16:37:38.746Z,12.47
2023-02-12T16:40:17.536Z,12.45
2023-02-12T16:42:46.988Z,12.43
2023-02-12T16:45:35.258Z,12.40
2023-02-12T16:48:07.677Z,12.33
2023-02-12T16:50:43.552Z,12.23
2023-02-12T16:53:33.462Z,12.19
2023-02-12T16:56:01.523Z,12.11
2023-02-12T16:58:28.550Z,12.05
2023-02-12T17:00:57.203Z,11.96
2023-02-12T17:03:24.598Z,11.93
2023-02-12T17:05:52.423Z,11.86
2023-02-12T17:08:22.237Z,11.82
2023-02-12T17:10:48.927Z,11.76
2023-02-12T17:13:16.246Z,11.71
2023-02-12T17:15:49.737Z,11.67
2023-02-12T17:18:18.178Z,11.65
2023-02-12T17:20:51.666Z,11.59
2023-02-12T17:23:18.519Z,11.51
2023-02-12T17:25:45.225Z,11.47
2023-02-12T17:28:12.443Z,11.41
2023-02-12T17:30:39.238Z,11.42
2023-02-12T17:33:05.934Z,11.36
2023-02-12T17:35:32.579Z,11.29
2023-02-12T17:37:59.308Z,11.20
2023-02-12T17:40:26.062Z,11.16
2023-02-12T17:42:52.730Z,11.18
2023-02-12T17:45:19.503Z,11.13
2023-02-12T17:47:46.507Z,11.02
2023-02-12T17:50:15.522Z,10.92
2023-02-12T17:52:42.968Z,10.89
2023-02-12T17:55:14.911Z,10.85
2023-02-12T17:57:41.606Z,10.81
2023-02-12T18:00:10.373Z,10.81
2023-02-12T18:02:39.981Z,10.78
2023-02-12T18:05:07.220Z,10.79
2023-02-12T18:07:35.465Z,10.81
2023-02-12T18:10:02.215Z,10.78
2023-02-12T18:12:30.818Z,10.73
2023-02-12T18:14:58.548Z,10.71
2023-02-12T18:17:25.524Z,10.67
2023-02-12T18:19:53.330Z,10.67
2023-02-12T18:22:20.699Z,10.62
2023-02-12T18:24:47.690Z,10.63
2023-02-12T18:27:15.559Z,10.61
2023-02-12T18:29:42.253Z,10.59
2023-02-12T18:32:14.404Z,10.58
2023-02-12T18:34:42.564Z,10.58
2023-02-12T18:37:11.047Z,10.49
2023-02-12T18:39:37.951Z,10.53
2023-02-12T18:42:05.348Z,10.53
2023-02-12T18:44:32.285Z,10.49
2023-02-12T18:46:59.984Z,10.46
2023-02-12T18:49:28.003Z,10.46
2023-02-12T18:51:54.992Z,10.44
2023-02-12T18:54:22.471Z,10.45
2023-02-12T18:56:51.525Z,10.44
2023-02-12T18:59:18.595Z,10.44
2023-02-12T19:01:47.117Z,10.27
2023-02-12T19:04:16.029Z,10.28
2023-02-12T19:06:46.128Z,10.34
2023-02-12T19:09:16.524Z,10.31
2023-02-12T19:11:46.388Z,10.33
2023-02-12T19:14:14.647Z,10.30
2023-02-12T19:16:42.025Z,10.25
2023-02-12T19:19:08.977Z,10.20
2023-02-12T19:21:35.846Z,10.16
2023-02-12T19:24:04.741Z,10.19
2023-02-12T19:26:33.628Z,10.18
2023-02-12T19:29:01.259Z,10.17
2023-02-12T19:31:33.791Z,10.16
2023-02-12T19:34:03.746Z,10.15
2023-02-12T19:36:33.617Z,10.14
2023-02-12T19:39:00.882Z,10.11
2023-02-12T19:41:29.975Z,10.15
2023-02-12T19:43:58.798Z,10.15
2023-02-12T19:46:30.003Z,10.12
2023-02-12T19:48:59.510Z,10.15
2023-02-12T19:51:27.682Z,10.13
2023-02-12T19:53:54.402Z,10.10
2023-02-12T19:56:21.259Z,10.06
2023-02-12T19:58:47.934Z,10.05
2023-02-12T20:01:17.838Z,10.00
2023-02-12T20:03:46.260Z,10.04
2023-02-12T20:06:19.437Z,10.05
2023-02-12T20:08:46.266Z,10.01
2023-02-12T20:11:17.563Z,9.93
2023-02-12T20:13:44.681Z,9.89
2023-02-12T20:16:17.836Z,9.86
2023-02-12T20:18:46.707Z,9.86
2023-02-12T20:21:20.392Z,9.77
2023-02-12T20:23:47.116Z,9.77
2023-02-12T20:26:15.435Z,9.80
2023-02-12T20:28:43.039Z,9.80
2023-02-12T20:31:15.567Z,9.77
2023-02-12T20:33:43.255Z,9.78
2023-02-12T20:36:13.684Z,9.76
2023-02-12T20:38:42.033Z,9.76
2023-02-12T20:41:09.989Z,9.75
2023-02-12T20:43:38.534Z,9.74
2023-02-12T20:46:11.891Z,9.76
2023-02-12T20:48:39.322Z,9.75
2023-02-12T20:51:08.361Z,9.81
2023-02-12T20:53:35.802Z,9.80
2023-02-12T20:56:17.729Z,9.83
2023-02-12T20:58:45.952Z,9.82
2023-02-12T21:01:21.360Z,9.77
2023-02-12T21:03:49.396Z,9.75
2023-02-12T21:06:16.028Z,9.75
2023-02-12T21:08:43.103Z,9.72
2023-02-12T21:11:15.298Z,9.74
2023-02-12T21:13:50.396Z,9.70
2023-02-12T21:16:32.093Z,9.66
2023-02-12T21:18:59.351Z,9.58
2023-02-12T21:21:34.952Z,9.67
2023-02-12T21:24:03.993Z,9.64
2023-02-12T21:26:32.004Z,9.64
2023-02-12T21:29:00.229Z,9.64
2023-02-12T21:31:38.509Z,9.63
2023-02-12T21:34:06.791Z,9.57
2023-02-12T21:36:39.950Z,9.56
2023-02-12T21:39:09.184Z,9.54
2023-02-12T21:41:38.095Z,9.53
2023-02-12T21:44:15.709Z,9.54
2023-02-12T21:46:43.408Z,9.59
2023-02-12T21:49:12.399Z,9.72
2023-02-12T21:51:41.875Z,9.62
2023-02-12T21:54:11.228Z,9.72
2023-02-12T21:56:39.314Z,9.80
2023-02-12T21:59:08.506Z,9.83
2023-02-12T22:01:38.041Z,9.89
2023-02-12T22:04:06.658Z,9.91
2023-02-12T22:06:37.243Z,9.88
2023-02-12T22:09:08.789Z,9.93
2023-02-12T22:11:36.897Z,9.98
2023-02-12T22:14:04.648Z,9.98
2023-02-12T22:16:31.749Z,9.95
2023-02-12T22:19:00.482Z,10.10
2023-02-12T22:21:34.947Z,10.18
2023-02-12T22:24:03.025Z,10.21
2023-02-12T22:26:31.387Z,10.26
2023-02-12T22:29:01.788Z,10.30
2023-02-12T22:31:31.444Z,10.34
2023-02-12T22:34:00.780Z,10.43
2023-02-12T22:36:28.540Z,10.44
2023-02-12T22:38:58.261Z,10.43
2023-02-12T22:41:27.567Z,10.42
2023-02-12T22:43:54.515Z,10.46
2023-02-12T22:46:21.408Z,10.45
2023-02-12T22:48:48.067Z,10.45
2023-02-12T22:51:21.032Z,10.42
2023-02-12T22:53:47.767Z,10.46
2023-02-12T22:56:15.023Z,10.48
2023-02-12T22:58:42.167Z,10.54
2023-02-12T23:01:12.109Z,10.57
2023-02-12T23:03:38.888Z,10.56
2023-02-12T23:06:16.739Z,10.56
2023-02-12T23:08:44.284Z,10.58
2023-02-12T23:11:11.807Z,10.56
2023-02-12T23:13:38.800Z,10.51
2023-02-12T23:16:05.740Z,10.53
2023-02-12T23:18:32.928Z,10.47
2023-02-12T23:21:00.409Z,10.37
2023-02-12T23:23:27.467Z,10.37
2023-02-12T23:25:54.690Z,10.35
2023-02-12T23:28:21.947Z,10.30
2023-02-12T23:30:49.848Z,10.35
2023-02-12T23:33:16.774Z,10.23
2023-02-12T23:35:44.528Z,10.21
2023-02-12T23:38:11.473Z,10.18
2023-02-12T23:40:38.839Z,10.10
2023-02-12T23:43:05.616Z,10.09
2023-02-12T23:45:32.297Z,10.04
2023-02-12T23:47:59.274Z,10.06
2023-02-12T23:50:25.923Z,10.04
2023-02-12T23:52:52.530Z,9.95
2023-02-12T23:55:20.204Z,10.00
2023-02-12T23:57:47.807Z,10.00
